createdAt,value
2017-11-12T00:00:07.704Z,37.03
2017-11-12T00:02:11.167Z,35.67
2017-11-12T00:04:13.811Z,33.00
2017-11-12T00:06:16.573Z,35.67
2017-11-12T00:08:19.249Z,35.37
2017-11-12T00:10:21.899Z,34.17
2017-11-12T00:12:25.348Z,40.30
2017-11-12T00:14:28.009Z,38.50
2017-11-12T00:16:30.701Z,43.37
2017-11-12T00:18:33.450Z,44.80
2017-11-12T00:20:36.145Z,45.93
2017-11-12T00:22:38.812Z,45.97
2017-11-12T00:24:41.525Z,48.23
2017-11-12T00:26:44.213Z,45.93
2017-11-12T00:28:46.872Z,46.10
2017-11-12T00:30:49.542Z,50.83
2017-11-12T00:32:52.225Z,51.80
2017-11-12T00:34:55.685Z,48.83
2017-11-12T00:36:58.381Z,57.00
2017-11-12T00:39:01.046Z,55.97
2017-11-12T00:41:03.849Z,53.00
2017-11-12T00:43:06.527Z,55.70
2017-11-12T00:45:09.194Z,55.60
2017-11-12T00:47:11.834Z,56.23
2017-11-12T00:49:14.518Z,54.50
2017-11-12T00:51:17.190Z,63.70
2017-11-12T00:53:19.863Z,57.33
2017-11-12T00:55:22.520Z,59.10
2017-11-12T00:57:25.212Z,56.97
2017-11-12T00:59:27.888Z,59.93
2017-11-12T01:01:30.543Z,58.43
2017-11-12T01:03:33.986Z,56.47
2017-11-12T01:05:36.673Z,52.20
2017-11-12T01:07:39.776Z,56.53
2017-11-12T01:09:42.475Z,56.77
2017-11-12T01:11:45.917Z,48.63
2017-11-12T01:13:48.584Z,50.97
2017-11-12T01:15:51.267Z,52.67
2017-11-12T01:17:53.949Z,48.33
2017-11-12T01:19:56.704Z,47.90
2017-11-12T01:21:59.479Z,45.97
2017-11-12T01:24:02.137Z,45.30
2017-11-12T01:26:04.782Z,44.17
2017-11-12T01:28:07.462Z,43.57
2017-11-12T01:30:10.128Z,49.00
2017-11-12T01:32:12.864Z,46.57
2017-11-12T01:34:15.597Z,46.30
2017-11-12T01:36:19.060Z,42.23
2017-11-12T01:38:21.710Z,43.60
2017-11-12T01:40:24.398Z,41.57
2017-11-12T01:42:27.079Z,44.23
2017-11-12T01:44:29.757Z,43.17
2017-11-12T01:46:32.438Z,45.87
2017-11-12T01:48:35.108Z,41.30
2017-11-12T01:50:37.779Z,47.93
2017-11-12T01:52:40.481Z,45.10
2017-11-12T01:54:43.220Z,41.73
2017-11-12T01:56:45.862Z,43.50
2017-11-12T01:58:49.347Z,43.87
2017-11-12T02:00:52.062Z,42.10
2017-11-12T02:02:54.797Z,41.03
2017-11-12T02:04:57.693Z,45.07
2017-11-12T02:07:01.119Z,47.40
2017-11-12T02:09:03.866Z,49.97
2017-11-12T02:11:07.297Z,47.67
2017-11-12T02:13:09.983Z,49.10
2017-11-12T02:15:12.712Z,44.50
2017-11-12T02:17:16.138Z,45.10
2017-11-12T02:19:18.849Z,45.00
2017-11-12T02:21:21.581Z,45.33
2017-11-12T02:23:24.281Z,45.93
2017-11-12T02:25:27.049Z,45.00
2017-11-12T02:27:29.885Z,45.37
2017-11-12T02:29:32.623Z,47.70
2017-11-12T02:31:35.314Z,47.60
2017-11-12T02:33:38.056Z,45.60
2017-11-12T02:35:40.758Z,46.83
2017-11-12T02:37:43.514Z,44.70
2017-11-12T02:39:46.229Z,46.10
2017-11-12T02:41:48.945Z,45.50
2017-11-12T02:43:52.540Z,42.93
2017-11-12T02:45:56.007Z,43.37
2017-11-12T02:47:58.709Z,43.30
2017-11-12T02:50:02.238Z,46.07
2017-11-12T02:52:04.952Z,43.37
2017-11-12T02:54:07.728Z,48.07
2017-11-12T02:56:10.462Z,45.20
2017-11-12T02:58:13.133Z,39.20
2017-11-12T03:00:15.817Z,38.93
2017-11-12T03:02:18.532Z,42.80
2017-11-12T03:04:21.275Z,39.40
2017-11-12T03:06:23.936Z,40.60
2017-11-12T03:08:26.635Z,36.90
2017-11-12T03:10:29.299Z,38.03
2017-11-12T03:12:31.963Z,38.43
2017-11-12T03:14:34.666Z,41.07
2017-11-12T03:16:37.337Z,37.03
2017-11-12T03:18:40.015Z,41.80
2017-11-12T03:20:42.908Z,38.80
2017-11-12T03:22:45.591Z,40.37
2017-11-12T03:24:48.549Z,37.30
2017-11-12T03:26:52.426Z,37.77
2017-11-12T03:28:55.897Z,42.60
2017-11-12T03:30:58.580Z,38.10
2017-11-12T03:33:02.035Z,41.30
2017-11-12T03:35:04.701Z,37.47
2017-11-12T03:37:07.378Z,41.20
2017-11-12T03:39:10.074Z,39.97
2017-11-12T03:41:12.734Z,38.03
2017-11-12T03:43:15.406Z,36.83
2017-11-12T03:45:18.961Z,40.30
2017-11-12T03:47:22.404Z,38.60
2017-11-12T03:49:25.112Z,37.57
2017-11-12T03:51:27.839Z,38.57
2017-11-12T03:53:30.556Z,38.57
2017-11-12T03:55:33.294Z,36.67
2017-11-12T03:57:36.016Z,40.47
2017-11-12T03:59:38.682Z,32.80
2017-11-12T04:01:41.385Z,36.37
2017-11-12T04:03:44.872Z,36.77
2017-11-12T04:05:47.597Z,35.33
2017-11-12T04:07:50.306Z,34.63
2017-11-12T04:09:53.359Z,33.27
2017-11-12T04:11:56.039Z,36.60
2017-11-12T04:13:58.741Z,34.10
2017-11-12T04:16:01.429Z,38.47
2017-11-12T04:18:14.189Z,37.60
2017-11-12T04:20:16.902Z,35.97
2017-11-12T04:22:19.609Z,35.33
2017-11-12T04:24:22.309Z,34.90
2017-11-12T04:26:25.832Z,36.17
2017-11-12T04:28:28.535Z,36.77
2017-11-12T04:30:31.190Z,35.70
2017-11-12T04:32:34.066Z,35.00
2017-11-12T04:34:36.747Z,33.07
2017-11-12T04:36:39.390Z,34.20
2017-11-12T04:38:42.084Z,36.40
2017-11-12T04:40:44.869Z,33.47
2017-11-12T04:42:47.720Z,35.13
2017-11-12T04:44:51.146Z,35.30
2017-11-12T04:46:53.827Z,34.30
2017-11-12T04:48:56.472Z,33.80
2017-11-12T04:50:59.132Z,35.10
2017-11-12T04:53:02.589Z,34.70
2017-11-12T04:55:05.241Z,32.80
2017-11-12T04:57:07.903Z,33.43
2017-11-12T04:59:10.692Z,33.97
2017-11-12T05:01:13.362Z,33.67
2017-11-12T05:03:16.044Z,31.10
2017-11-12T05:05:18.713Z,34.33
2017-11-12T05:07:21.394Z,32.47
2017-11-12T05:09:24.074Z,32.20
2017-11-12T05:11:26.757Z,32.80
2017-11-12T05:13:29.420Z,34.03
2017-11-12T05:15:32.110Z,32.97
2017-11-12T05:17:34.780Z,34.37
2017-11-12T05:19:37.441Z,33.77
2017-11-12T05:21:40.124Z,34.40
2017-11-12T05:23:42.789Z,35.20
2017-11-12T05:25:45.453Z,34.80
2017-11-12T05:27:48.895Z,36.50
2017-11-12T05:29:51.562Z,34.53
2017-11-12T05:31:54.236Z,35.03
2017-11-12T05:33:56.915Z,35.07
2017-11-12T05:35:59.568Z,33.70
2017-11-12T05:38:02.222Z,34.67
2017-11-12T05:40:05.685Z,33.07
2017-11-12T05:42:08.397Z,34.83
2017-11-12T05:44:11.832Z,33.13
2017-11-12T05:46:14.507Z,34.63
2017-11-12T05:48:17.184Z,33.17
2017-11-12T05:50:19.952Z,36.83
2017-11-12T05:52:22.641Z,33.07
2017-11-12T05:54:25.328Z,36.93
2017-11-12T05:56:28.211Z,34.77
2017-11-12T05:58:30.914Z,34.97
2017-11-12T06:00:33.637Z,33.27
2017-11-12T06:02:36.295Z,34.23
2017-11-12T06:04:38.997Z,35.67
2017-11-12T06:06:41.768Z,35.27
2017-11-12T06:08:44.755Z,33.80
2017-11-12T06:10:47.617Z,35.37
2017-11-12T06:12:50.307Z,31.57
2017-11-12T06:14:53.022Z,35.87
2017-11-12T06:16:55.766Z,33.97
2017-11-12T06:18:58.455Z,36.07
2017-11-12T06:21:01.148Z,35.27
2017-11-12T06:23:03.834Z,31.90
2017-11-12T06:25:08.001Z,33.10
2017-11-12T06:27:10.692Z,33.70
2017-11-12T06:29:13.398Z,33.40
2017-11-12T06:31:16.134Z,32.77
2017-11-12T06:33:18.842Z,33.50
2017-11-12T06:35:21.531Z,35.80
2017-11-12T06:37:24.317Z,32.30
2017-11-12T06:39:27.016Z,35.40
2017-11-12T06:41:30.542Z,38.37
2017-11-12T06:43:33.214Z,37.10
2017-11-12T06:45:35.909Z,33.90
2017-11-12T06:47:38.667Z,34.27
2017-11-12T06:49:41.322Z,34.40
2017-11-12T06:51:44.862Z,34.90
2017-11-12T06:53:47.524Z,33.37
2017-11-12T06:55:50.176Z,34.57
2017-11-12T06:57:52.938Z,34.20
2017-11-12T06:59:56.385Z,32.13
2017-11-12T07:01:59.032Z,33.33
2017-11-12T07:04:01.731Z,34.53
2017-11-12T07:06:04.397Z,36.00
2017-11-12T07:08:07.078Z,36.33
2017-11-12T07:10:09.755Z,33.23
2017-11-12T07:12:12.394Z,35.70
2017-11-12T07:14:15.840Z,35.47
2017-11-12T07:16:18.515Z,34.70
2017-11-12T07:18:21.195Z,37.00
2017-11-12T07:20:23.949Z,34.47
2017-11-12T07:22:26.660Z,34.73
2017-11-12T07:24:29.330Z,36.00
2017-11-12T07:26:32.007Z,36.90
2017-11-12T07:28:34.668Z,37.67
2017-11-12T07:30:37.334Z,34.87
2017-11-12T07:32:40.110Z,37.10
2017-11-12T07:34:42.783Z,34.80
2017-11-12T07:36:45.484Z,33.93
2017-11-12T07:38:48.162Z,35.73
2017-11-12T07:40:50.833Z,37.00
2017-11-12T07:42:53.503Z,35.07
2017-11-12T07:44:56.179Z,35.10
2017-11-12T07:46:58.940Z,34.73
2017-11-12T07:49:01.610Z,35.63
2017-11-12T07:51:04.278Z,35.23
2017-11-12T07:53:07.074Z,34.47
2017-11-12T07:55:09.750Z,34.00
2017-11-12T07:57:12.430Z,33.80
2017-11-12T07:59:15.356Z,35.30
2017-11-12T08:01:18.024Z,35.43
2017-11-12T08:03:20.732Z,35.60
2017-11-12T08:05:23.433Z,37.07
2017-11-12T08:07:26.102Z,35.20
2017-11-12T08:09:28.820Z,34.73
2017-11-12T08:11:31.552Z,33.80
2017-11-12T08:13:35.047Z,32.47
2017-11-12T08:15:39.053Z,33.90
2017-11-12T08:17:41.768Z,34.20
2017-11-12T08:19:44.440Z,34.63
2017-11-12T08:21:47.127Z,33.93
2017-11-12T08:23:49.788Z,31.63
2017-11-12T08:25:52.456Z,32.93
2017-11-12T08:27:55.183Z,32.90
2017-11-12T08:29:57.838Z,33.20
2017-11-12T08:32:02.252Z,32.03
2017-11-12T08:34:04.975Z,32.63
2017-11-12T08:36:08.432Z,29.13
2017-11-12T08:38:11.116Z,27.53
2017-11-12T08:40:13.854Z,23.30
2017-11-12T08:42:16.519Z,19.67
2017-11-12T08:44:19.306Z,20.93
2017-11-12T08:46:22.086Z,22.67
2017-11-12T08:48:24.771Z,26.90
2017-11-12T08:50:27.484Z,25.23
2017-11-12T08:52:30.282Z,29.47
2017-11-12T08:54:33.911Z,28.00
2017-11-12T08:56:36.593Z,29.50
2017-11-12T08:58:39.302Z,31.13
2017-11-12T09:00:41.984Z,31.17
2017-11-12T09:02:44.692Z,33.50
2017-11-12T09:04:47.441Z,33.03
2017-11-12T09:06:50.149Z,32.97
2017-11-12T09:08:53.629Z,34.63
2017-11-12T09:10:56.325Z,32.97
2017-11-12T09:12:59.013Z,33.67
2017-11-12T09:15:01.701Z,36.27
2017-11-12T09:17:04.445Z,33.83
2017-11-12T09:19:07.890Z,34.83
2017-11-12T09:21:10.584Z,31.13
2017-11-12T09:23:13.282Z,33.03
2017-11-12T09:25:15.997Z,32.50
2017-11-12T09:27:18.714Z,30.83
2017-11-12T09:29:21.415Z,31.27
2017-11-12T09:31:25.207Z,28.80
2017-11-12T09:33:28.667Z,26.43
2017-11-12T09:35:31.347Z,24.50
2017-11-12T09:37:34.108Z,23.53
2017-11-12T09:39:36.815Z,20.50
2017-11-12T09:41:39.515Z,22.43
2017-11-12T09:43:42.202Z,19.30
2017-11-12T09:45:45.640Z,18.40
2017-11-12T09:47:48.364Z,13.80
2017-11-12T09:49:51.053Z,12.47
2017-11-12T09:51:54.475Z,12.93
2017-11-12T09:53:57.173Z,12.53
2017-11-12T09:55:59.882Z,11.70
2017-11-12T09:58:02.547Z,10.23
2017-11-12T10:00:05.263Z,10.27
2017-11-12T10:02:07.915Z,9.63
2017-11-12T10:04:10.572Z,9.67
2017-11-12T10:06:13.287Z,9.60
2017-11-12T10:08:16.709Z,10.10
2017-11-12T10:10:19.396Z,9.27
2017-11-12T10:12:22.084Z,8.87
2017-11-12T10:14:24.735Z,9.87
2017-11-12T10:16:27.415Z,9.07
2017-11-12T10:18:30.065Z,8.50
2017-11-12T10:20:32.789Z,8.73
2017-11-12T10:22:37.502Z,7.60
2017-11-12T10:24:40.201Z,8.13
2017-11-12T10:26:42.872Z,7.53
2017-11-12T10:28:45.535Z,8.13
2017-11-12T10:30:48.182Z,7.00
2017-11-12T10:32:50.872Z,6.20
2017-11-12T10:34:53.535Z,7.27
2017-11-12T10:36:56.175Z,6.97
2017-11-12T10:38:58.851Z,7.10
2017-11-12T10:41:01.513Z,7.03
2017-11-12T10:43:04.183Z,6.37
2017-11-12T10:45:06.851Z,7.43
2017-11-12T10:47:10.314Z,6.43
2017-11-12T10:49:12.992Z,7.13
2017-11-12T10:51:15.650Z,7.17
2017-11-12T10:53:18.309Z,7.10
2017-11-12T10:55:21.774Z,7.07
2017-11-12T10:57:24.420Z,6.80
2017-11-12T10:59:27.101Z,7.53
2017-11-12T11:01:29.825Z,7.70
2017-11-12T11:03:32.477Z,7.67
2017-11-12T11:05:35.164Z,7.50
2017-11-12T11:07:37.868Z,8.03
2017-11-12T11:09:41.269Z,8.20
2017-11-12T11:11:43.930Z,7.80
2017-11-12T11:13:47.366Z,8.80
2017-11-12T11:15:50.095Z,8.20
2017-11-12T11:17:52.754Z,7.80
2017-11-12T11:19:55.439Z,7.43
2017-11-12T11:21:58.088Z,8.27
2017-11-12T11:24:00.782Z,7.70
2017-11-12T11:26:03.466Z,8.10
2017-11-12T11:28:06.120Z,7.30
2017-11-12T11:30:08.775Z,6.07
2017-11-12T11:32:11.481Z,5.90
2017-11-12T11:34:14.182Z,7.10
2017-11-12T11:36:17.611Z,7.03
2017-11-12T11:38:20.310Z,6.67
2017-11-12T11:40:22.978Z,6.20
2017-11-12T11:42:25.748Z,6.03
2017-11-12T11:44:28.544Z,6.87
2017-11-12T11:46:31.237Z,5.90
2017-11-12T11:48:33.912Z,7.63
2017-11-12T11:50:36.663Z,7.70
2017-11-12T11:52:39.325Z,7.53
2017-11-12T11:54:42.057Z,7.83
2017-11-12T11:56:44.714Z,9.17
2017-11-12T11:58:47.389Z,8.30
2017-11-12T12:00:50.520Z,8.77
2017-11-12T12:02:53.955Z,9.33
2017-11-12T12:04:56.665Z,8.83
2017-11-12T12:06:59.357Z,8.33
2017-11-12T12:09:02.814Z,9.20
2017-11-12T12:11:05.608Z,9.83
2017-11-12T12:13:09.029Z,9.87
2017-11-12T12:15:12.493Z,12.40
2017-11-12T12:17:15.180Z,16.17
2017-11-12T12:19:17.853Z,13.57
2017-11-12T12:21:20.543Z,9.30
2017-11-12T12:23:23.973Z,7.50
2017-11-12T12:25:26.682Z,8.03
2017-11-12T12:27:29.337Z,8.17
2017-11-12T12:29:32.116Z,6.43
2017-11-12T12:31:34.807Z,6.50
2017-11-12T12:33:37.485Z,7.00
2017-11-12T12:35:40.135Z,7.50
2017-11-12T12:37:42.924Z,7.70
2017-11-12T12:39:45.577Z,7.63
2017-11-12T12:41:48.276Z,6.07
2017-11-12T12:43:51.018Z,6.70
2017-11-12T12:45:54.499Z,6.57
2017-11-12T12:47:57.948Z,5.80
2017-11-12T12:50:00.621Z,7.43
2017-11-12T12:52:03.263Z,5.30
2017-11-12T12:54:06.922Z,3.90
2017-11-12T12:56:09.578Z,3.87
2017-11-12T12:58:12.240Z,3.93
2017-11-12T13:00:14.928Z,3.60
2017-11-12T13:02:17.691Z,3.90
2017-11-12T13:04:20.368Z,2.93
2017-11-12T13:06:23.078Z,3.47
2017-11-12T13:08:25.831Z,2.90
2017-11-12T13:10:28.513Z,2.93
2017-11-12T13:12:31.200Z,3.67
2017-11-12T13:14:34.025Z,2.90
2017-11-12T13:16:37.493Z,3.67
2017-11-12T13:18:40.205Z,3.30
2017-11-12T13:20:43.827Z,3.80
2017-11-12T13:22:46.515Z,3.00
2017-11-12T13:24:49.234Z,3.60
2017-11-12T13:26:51.937Z,3.37
2017-11-12T13:28:54.648Z,3.83
2017-11-12T13:30:57.366Z,3.23
2017-11-12T13:33:00.922Z,3.70
2017-11-12T13:35:03.733Z,3.70
2017-11-12T13:37:06.453Z,3.20
2017-11-12T13:39:09.235Z,3.30
2017-11-12T13:41:11.916Z,3.20
2017-11-12T13:43:14.796Z,3.33
2017-11-12T13:45:17.751Z,3.03
2017-11-12T13:47:21.408Z,3.00
2017-11-12T13:49:24.286Z,2.70
2017-11-12T13:51:26.949Z,2.40
2017-11-12T13:53:29.616Z,2.07
2017-11-12T13:55:32.304Z,2.00
2017-11-12T13:57:34.965Z,2.30
2017-11-12T13:59:37.817Z,2.40
2017-11-12T14:01:41.271Z,2.30
2017-11-12T14:03:44.718Z,2.43
2017-11-12T14:05:47.563Z,2.30
2017-11-12T14:07:50.270Z,2.73
2017-11-12T14:09:52.986Z,2.47
2017-11-12T14:11:55.654Z,2.47
2017-11-12T14:13:58.429Z,2.40
2017-11-12T14:16:01.102Z,3.23
2017-11-12T14:18:03.756Z,2.23
2017-11-12T14:20:06.441Z,2.00
2017-11-12T14:22:09.096Z,2.03
2017-11-12T14:24:12.558Z,2.50
2017-11-12T14:26:15.235Z,2.60
2017-11-12T14:28:17.890Z,3.00
2017-11-12T14:30:20.566Z,2.73
2017-11-12T14:32:23.428Z,2.60
2017-11-12T14:34:26.105Z,3.40
2017-11-12T14:36:28.806Z,2.63
2017-11-12T14:38:31.481Z,3.37
2017-11-12T14:40:35.383Z,3.60
2017-11-12T14:42:38.084Z,3.10
2017-11-12T14:44:40.765Z,4.10
2017-11-12T14:46:43.625Z,3.60
2017-11-12T14:48:47.410Z,3.83
2017-11-12T14:50:50.085Z,4.47
2017-11-12T14:52:52.775Z,4.60
2017-11-12T14:54:55.445Z,4.67
2017-11-12T14:56:58.092Z,4.27
2017-11-12T14:59:01.552Z,5.00
2017-11-12T15:01:04.221Z,6.90
2017-11-12T15:03:06.909Z,6.10
2017-11-12T15:05:10.347Z,7.30
2017-11-12T15:07:13.060Z,3.60
2017-11-12T15:09:15.817Z,4.13
2017-11-12T15:11:18.486Z,3.53
2017-11-12T15:13:21.145Z,3.87
2017-11-12T15:15:23.823Z,3.90
2017-11-12T15:17:26.713Z,4.30
2017-11-12T15:19:29.387Z,13.77
2017-11-12T15:21:32.172Z,12.47
2017-11-12T15:23:34.841Z,36.80
2017-11-12T15:25:37.519Z,10.60
2017-11-12T15:27:40.291Z,14.77
2017-11-12T15:29:42.969Z,15.00
2017-11-12T15:31:45.634Z,6.97
2017-11-12T15:33:48.318Z,19.13
2017-11-12T15:35:51.021Z,6.00
2017-11-12T15:37:53.741Z,14.33
2017-11-12T15:39:56.487Z,8.23
2017-11-12T15:41:59.145Z,4.80
2017-11-12T15:44:01.911Z,15.30
2017-11-12T15:46:04.596Z,26.50
2017-11-12T15:48:07.280Z,29.47
2017-11-12T15:50:09.939Z,8.43
2017-11-12T15:52:12.640Z,14.43
2017-11-12T15:54:15.381Z,34.17
2017-11-12T15:56:18.133Z,28.83
2017-11-12T15:58:21.868Z,9.90
2017-11-12T16:00:24.644Z,17.93
2017-11-12T16:02:27.446Z,20.30
2017-11-12T16:04:30.128Z,14.70
2017-11-12T16:06:32.798Z,5.03
2017-11-12T16:08:35.628Z,16.37
2017-11-12T16:10:39.070Z,5.60
2017-11-12T16:12:41.841Z,6.73
2017-11-12T16:14:44.888Z,6.17
2017-11-12T16:16:48.342Z,5.23
2017-11-12T16:18:50.990Z,5.80
2017-11-12T16:20:53.730Z,7.00
2017-11-12T16:22:57.176Z,5.80
2017-11-12T16:24:59.932Z,9.70
2017-11-12T16:27:02.593Z,6.63
2017-11-12T16:29:05.305Z,9.97
2017-11-12T16:31:08.067Z,7.77
2017-11-12T16:33:10.722Z,9.93
2017-11-12T16:35:14.168Z,8.80
2017-11-12T16:37:16.847Z,10.63
2017-11-12T16:39:19.531Z,10.00
2017-11-12T16:41:22.276Z,11.53
2017-11-12T16:43:24.945Z,10.70
2017-11-12T16:45:27.606Z,9.37
2017-11-12T16:47:30.305Z,10.07
2017-11-12T16:49:32.981Z,12.30
2017-11-12T16:51:35.649Z,10.23
2017-11-12T16:53:38.430Z,11.77
2017-11-12T16:55:41.100Z,12.20
2017-11-12T16:57:43.779Z,12.23
2017-11-12T16:59:46.594Z,12.10
2017-11-12T17:01:49.274Z,11.43
2017-11-12T17:03:52.007Z,11.20
2017-11-12T17:05:54.702Z,12.33
2017-11-12T17:07:57.395Z,10.73
2017-11-12T17:10:00.077Z,12.63
2017-11-12T17:12:02.772Z,11.90
2017-11-12T17:14:05.427Z,14.70
2017-11-12T17:16:08.097Z,13.50
2017-11-12T17:18:10.793Z,11.73
2017-11-12T17:20:13.473Z,10.10
2017-11-12T17:22:16.126Z,10.83
2017-11-12T17:24:18.808Z,9.00
2017-11-12T17:26:21.548Z,10.00
2017-11-12T17:28:24.213Z,9.00
2017-11-12T17:30:27.002Z,9.17
2017-11-12T17:32:29.664Z,9.57
2017-11-12T17:34:32.360Z,12.90
2017-11-12T17:36:35.025Z,10.00
2017-11-12T17:38:37.679Z,11.93
2017-11-12T17:40:41.126Z,18.67
2017-11-12T17:42:43.881Z,13.50
2017-11-12T17:44:46.548Z,17.90
2017-11-12T17:46:49.234Z,14.20
2017-11-12T17:48:51.911Z,12.83
2017-11-12T17:50:54.589Z,29.83
2017-11-12T17:52:57.285Z,19.80
2017-11-12T17:54:59.939Z,12.87
2017-11-12T17:57:02.578Z,8.80
2017-11-12T17:59:06.076Z,8.40
2017-11-12T18:01:08.748Z,11.00
2017-11-12T18:03:12.206Z,8.87
2017-11-12T18:05:14.896Z,9.70
2017-11-12T18:07:17.627Z,8.27
2017-11-12T18:09:20.299Z,7.60
2017-11-12T18:11:22.981Z,9.37
2017-11-12T18:13:25.634Z,7.73
2017-11-12T18:15:29.068Z,13.87
2017-11-12T18:17:31.770Z,11.50
2017-11-12T18:19:34.442Z,7.63
2017-11-12T18:21:37.524Z,11.83
2017-11-12T18:23:40.270Z,8.23
2017-11-12T18:25:43.020Z,9.50
2017-11-12T18:27:46.546Z,9.27
2017-11-12T18:29:49.271Z,26.73
2017-11-12T18:31:51.942Z,11.83
2017-11-12T18:33:54.882Z,11.47
2017-11-12T18:35:57.595Z,12.27
2017-11-12T18:38:00.349Z,11.57
2017-11-12T18:40:03.111Z,15.27
2017-11-12T18:42:05.837Z,16.77
2017-11-12T18:44:08.977Z,13.00
2017-11-12T18:46:11.763Z,25.53
2017-11-12T18:48:14.501Z,12.23
2017-11-12T18:50:19.148Z,12.30
2017-11-12T18:52:22.151Z,13.30
2017-11-12T18:54:24.839Z,18.50
2017-11-12T18:56:33.224Z,13.40
2017-11-12T18:58:36.109Z,15.00
2017-11-12T19:00:54.847Z,15.47
2017-11-12T19:03:03.234Z,8.00
2017-11-12T19:05:09.303Z,11.53
2017-11-12T19:07:18.762Z,16.10
2017-11-12T19:09:25.494Z,15.23
2017-11-12T19:11:29.038Z,15.13
2017-11-12T19:13:31.817Z,10.87
2017-11-12T19:15:34.688Z,10.40
2017-11-12T19:17:58.256Z,10.07
2017-11-12T19:20:18.883Z,9.90
2017-11-12T19:22:23.550Z,9.33
2017-11-12T19:24:32.119Z,9.13
2017-11-12T19:26:37.958Z,14.60
2017-11-12T19:28:45.225Z,11.63
2017-11-12T19:30:47.920Z,8.90
2017-11-12T19:32:50.659Z,13.37
2017-11-12T19:34:53.351Z,8.50
2017-11-12T19:36:56.028Z,11.23
2017-11-12T19:38:58.719Z,10.80
2017-11-12T19:41:01.449Z,9.40
2017-11-12T19:43:04.862Z,9.37
2017-11-12T19:45:07.561Z,8.70
2017-11-12T19:47:10.211Z,9.53
2017-11-12T19:49:12.878Z,12.20
2017-11-12T19:51:16.398Z,9.63
2017-11-12T19:53:19.088Z,8.40
2017-11-12T19:55:21.741Z,8.80
2017-11-12T19:57:24.418Z,10.80
2017-11-12T19:59:27.185Z,12.03
2017-11-12T20:01:30.616Z,9.27
2017-11-12T20:03:33.309Z,11.73
2017-11-12T20:05:36.002Z,14.47
2017-11-12T20:07:38.833Z,11.90
2017-11-12T20:09:41.504Z,14.33
2017-11-12T20:11:44.187Z,15.23
2017-11-12T20:13:46.878Z,13.80
2017-11-12T20:15:49.540Z,19.80
2017-11-12T20:17:52.223Z,15.53
2017-11-12T20:19:54.895Z,11.33
2017-11-12T20:21:57.559Z,11.10
2017-11-12T20:24:00.269Z,10.17
2017-11-12T20:26:03.022Z,11.20
2017-11-12T20:28:05.700Z,11.63
2017-11-12T20:30:08.485Z,12.50
2017-11-12T20:32:11.168Z,13.63
2017-11-12T20:34:13.832Z,11.40
2017-11-12T20:36:16.633Z,9.83
2017-11-12T20:38:19.308Z,12.70
2017-11-12T20:40:21.969Z,11.90
2017-11-12T20:42:24.673Z,10.30
2017-11-12T20:44:27.366Z,15.50
2017-11-12T20:46:30.065Z,14.27
2017-11-12T20:48:32.804Z,10.30
2017-11-12T20:50:35.475Z,10.77
2017-11-12T20:52:38.145Z,12.27
2017-11-12T20:54:40.872Z,11.00
2017-11-12T20:56:44.517Z,9.17
2017-11-12T20:58:47.200Z,8.70
2017-11-12T21:00:49.884Z,10.70
2017-11-12T21:02:52.728Z,9.33
2017-11-12T21:04:56.135Z,21.17
2017-11-12T21:06:59.889Z,20.00
2017-11-12T21:09:04.445Z,19.47
2017-11-12T21:11:07.223Z,11.17
2017-11-12T21:13:10.003Z,10.13
2017-11-12T21:15:12.691Z,8.87
2017-11-12T21:17:15.368Z,9.37
2017-11-12T21:19:18.793Z,9.90
2017-11-12T21:21:24.149Z,9.03
2017-11-12T21:23:28.090Z,10.07
2017-11-12T21:25:30.786Z,9.97
2017-11-12T21:27:33.463Z,12.63
2017-11-12T21:29:36.139Z,11.90
2017-11-12T21:31:39.757Z,11.87
2017-11-12T21:33:50.238Z,12.10
2017-11-12T21:36:03.648Z,14.33
2017-11-12T21:38:06.380Z,10.97
2017-11-12T21:40:09.104Z,13.50
2017-11-12T21:42:11.840Z,11.33
2017-11-12T21:44:14.554Z,15.70
2017-11-12T21:46:17.236Z,12.00
2017-11-12T21:48:19.944Z,13.87
2017-11-12T21:50:23.380Z,14.40
2017-11-12T21:52:26.041Z,14.60
2017-11-12T21:54:29.111Z,12.80
2017-11-12T21:56:31.905Z,12.60
2017-11-12T21:58:34.815Z,16.50
2017-11-12T22:00:37.561Z,14.03
2017-11-12T22:02:40.230Z,11.43
2017-11-12T22:04:42.914Z,13.27
2017-11-12T22:06:45.614Z,10.13
2017-11-12T22:08:48.292Z,10.97
2017-11-12T22:10:51.148Z,8.30
2017-11-12T22:12:53.845Z,8.73
2017-11-12T22:14:56.500Z,8.67
2017-11-12T22:16:59.204Z,8.80
2017-11-12T22:19:01.906Z,7.90
2017-11-12T22:21:04.598Z,8.90
2017-11-12T22:23:08.085Z,10.30
2017-11-12T22:25:11.549Z,7.90
2017-11-12T22:27:14.223Z,9.67
2017-11-12T22:29:16.980Z,9.67
2017-11-12T22:31:19.964Z,9.57
2017-11-12T22:33:22.674Z,9.60
2017-11-12T22:35:27.289Z,9.17
2017-11-12T22:37:29.959Z,10.87
2017-11-12T22:39:32.608Z,6.60
2017-11-12T22:41:35.391Z,7.20
2017-11-12T22:43:38.068Z,5.23
2017-11-12T22:45:40.728Z,4.90
2017-11-12T22:47:43.421Z,7.90
2017-11-12T22:49:46.081Z,6.23
2017-11-12T22:51:48.733Z,5.90
2017-11-12T22:53:52.197Z,5.60
2017-11-12T22:55:54.867Z,5.90
2017-11-12T22:57:57.524Z,5.70
2017-11-12T23:00:00.302Z,4.97
2017-11-12T23:02:02.947Z,4.47
2017-11-12T23:04:06.375Z,6.10
2017-11-12T23:06:09.141Z,5.40
2017-11-12T23:08:11.803Z,4.60
2017-11-12T23:10:14.492Z,4.63
2017-11-12T23:12:17.179Z,5.20
2017-11-12T23:14:19.868Z,4.97
2017-11-12T23:16:22.515Z,4.50
2017-11-12T23:18:25.195Z,4.70
2017-11-12T23:20:27.840Z,4.50
2017-11-12T23:22:31.285Z,4.90
2017-11-12T23:24:33.976Z,4.53
2017-11-12T23:26:36.656Z,4.80
2017-11-12T23:28:39.402Z,4.10
2017-11-12T23:30:42.109Z,6.50
2017-11-12T23:32:44.774Z,3.70
2017-11-12T23:34:47.436Z,4.37
2017-11-12T23:36:50.240Z,3.93
2017-11-12T23:38:52.906Z,4.00
2017-11-12T23:40:55.558Z,4.23
2017-11-12T23:42:58.232Z,5.70
2017-11-12T23:45:01.018Z,4.10
2017-11-12T23:47:03.667Z,4.47
2017-11-12T23:49:07.131Z,4.50
2017-11-12T23:51:09.779Z,4.50
2017-11-12T23:53:12.640Z,4.33
2017-11-12T23:55:15.318Z,3.80
2017-11-12T23:57:17.991Z,4.87
2017-11-12T23:59:20.680Z,3.80
